Time;durP1;ratioP1;P1;durP2;ratioP2;P2;SDS_P1;SDS_P2;PMS_P1;PMS_P2;Temp;Humidity;BMP_temperature;BMP_pressure;BME280_temperature;BME280_humidity;BME280_pressure;Samples;Min_cycle;Max_cycle;Signal;HPM_P1;HPM_P2
2021/09/08 00:01:17;;;;;;;5.10;3.58;;;15.10;52.00;;;;;;5013993;28;20026;-64
2021/09/08 00:03:43;;;;;;;6.50;3.95;;;15.10;52.10;;;;;;5046129;28;20038;-64
2021/09/08 00:06:08;;;;;;;4.05;3.05;;;15.10;52.10;;;;;;5014170;28;20483;-64
2021/09/08 00:08:34;;;;;;;4.65;3.20;;;15.10;52.30;;;;;;5014331;28;20105;-64
2021/09/08 00:10:59;;;;;;;5.00;3.60;;;15.10;52.40;;;;;;5014247;28;20033;-64
2021/09/08 00:13:25;;;;;;;4.88;3.38;;;15.00;52.30;;;;;;5013246;28;20069;-64
2021/09/08 00:15:51;;;;;;;4.43;3.05;;;15.00;52.30;;;;;;5014076;28;20030;-64
2021/09/08 00:18:17;;;;;;;4.85;3.15;;;15.00;52.30;;;;;;5013312;28;20041;-64
2021/09/08 00:20:43;;;;;;;4.18;3.05;;;15.00;52.30;;;;;;5013748;28;20053;-64
2021/09/08 00:23:09;;;;;;;4.45;3.58;;;15.00;52.40;;;;;;5014033;28;20478;-64
2021/09/08 00:25:35;;;;;;;5.55;3.53;;;15.00;52.40;;;;;;5014066;28;20026;-64
2021/09/08 00:28:00;;;;;;;4.53;3.00;;;14.90;52.40;;;;;;5014022;28;20049;-64
2021/09/08 00:30:26;;;;;;;5.75;3.97;;;14.90;52.40;;;;;;5013107;28;20057;-64
2021/09/08 00:32:52;;;;;;;6.28;3.33;;;14.90;52.50;;;;;;5013696;28;20415;-64
2021/09/08 00:35:17;;;;;;;6.38;2.92;;;14.90;52.50;;;;;;5013652;28;20022;-64
2021/09/08 00:37:43;;;;;;;4.00;2.90;;;14.90;52.40;;;;;;5013802;28;20018;-64
2021/09/08 00:40:10;;;;;;;6.20;3.30;;;14.90;52.50;;;;;;5013546;28;20030;-64
2021/09/08 00:42:36;;;;;;;4.93;3.10;;;14.90;52.40;;;;;;5013719;28;20393;-64
2021/09/08 00:45:02;;;;;;;5.93;3.40;;;14.90;52.30;;;;;;5013579;28;20030;-64
2021/09/08 00:47:28;;;;;;;4.07;2.72;;;14.90;52.40;;;;;;5012707;28;20025;-64
2021/09/08 00:49:53;;;;;;;4.20;2.67;;;14.90;52.30;;;;;;5012870;28;20413;-64
2021/09/08 00:52:20;;;;;;;4.22;2.95;;;14.90;52.30;;;;;;5013085;28;20478;-64
2021/09/08 00:54:50;;;;;;;3.75;2.50;;;14.90;52.30;;;;;;5013587;28;20410;-64
2021/09/08 00:57:19;;;;;;;3.72;2.53;;;14.80;52.30;;;;;;5005246;28;20038;-64
2021/09/08 00:59:45;;;;;;;3.85;2.47;;;14.80;52.20;;;;;;4994191;28;20053;-64
2021/09/08 01:02:11;;;;;;;2.63;2.10;;;14.80;52.20;;;;;;4994139;28;20019;-64
2021/09/08 01:04:37;;;;;;;3.20;2.40;;;14.80;52.20;;;;;;4994266;28;20418;-64
2021/09/08 01:07:07;;;;;;;5.07;3.13;;;14.80;52.30;;;;;;5005838;28;20386;-64
2021/09/08 01:09:33;;;;;;;4.70;2.72;;;14.80;52.20;;;;;;5012041;28;20022;-64
2021/09/08 01:12:00;;;;;;;5.93;3.10;;;14.80;52.20;;;;;;5002397;28;20053;-64
2021/09/08 01:14:26;;;;;;;7.03;2.95;;;14.80;52.40;;;;;;5013643;28;20029;-64
2021/09/08 01:16:56;;;;;;;3.67;2.70;;;14.80;52.30;;;;;;5013639;28;20465;-64
2021/09/08 01:19:22;;;;;;;2.97;2.53;;;14.80;52.30;;;;;;5013694;28;20045;-64
2021/09/08 01:21:48;;;;;;;3.90;2.80;;;14.80;52.40;;;;;;5011946;28;20050;-64
2021/09/08 01:24:14;;;;;;;4.88;2.72;;;14.80;52.30;;;;;;5013318;28;20425;-64
2021/09/08 01:26:42;;;;;;;4.15;2.60;;;14.80;52.30;;;;;;5013561;28;20025;-64
2021/09/08 01:29:09;;;;;;;3.53;2.45;;;14.80;52.40;;;;;;5013563;28;20072;-64
2021/09/08 01:31:36;;;;;;;4.68;2.97;;;14.80;52.40;;;;;;5013616;28;20041;-64
2021/09/08 01:34:02;;;;;;;3.17;2.63;;;14.80;52.30;;;;;;5013735;28;20399;-64
2021/09/08 01:36:28;;;;;;;5.57;3.20;;;14.70;52.30;;;;;;5013449;28;20038;-64
2021/09/08 01:38:54;;;;;;;5.15;3.10;;;14.70;52.40;;;;;;5013525;28;20030;-64
2021/09/08 01:41:19;;;;;;;9.38;3.67;;;14.70;52.50;;;;;;5013179;28;20057;-64
2021/09/08 01:43:46;;;;;;;4.05;3.00;;;14.70;52.70;;;;;;5013296;28;20037;-64
2021/09/08 01:46:19;;;;;;;4.05;3.05;;;14.70;52.50;;;;;;5012910;28;20469;-64
2021/09/08 01:48:45;;;;;;;3.50;2.72;;;14.70;52.60;;;;;;5011536;28;20197;-64
2021/09/08 01:51:11;;;;;;;3.30;2.50;;;14.70;52.50;;;;;;5012667;28;20105;-64
2021/09/08 01:53:36;;;;;;;3.92;2.70;;;14.70;52.40;;;;;;5011685;28;20385;-64
2021/09/08 01:56:02;;;;;;;3.63;2.75;;;14.70;52.50;;;;;;5011569;28;20030;-64
2021/09/08 01:58:28;;;;;;;4.88;2.78;;;14.70;52.40;;;;;;5013128;28;20071;-64
2021/09/08 02:00:53;;;;;;;4.55;3.10;;;14.60;52.30;;;;;;5013110;28;20160;-64
2021/09/08 02:03:19;;;;;;;3.42;2.80;;;14.60;52.30;;;;;;5012987;28;20077;-64
2021/09/08 02:05:45;;;;;;;5.70;3.08;;;14.70;52.40;;;;;;5013005;28;20022;-64
2021/09/08 02:08:10;;;;;;;4.55;2.80;;;14.60;52.30;;;;;;5007228;28;20471;-64
2021/09/08 02:10:36;;;;;;;4.95;3.20;;;14.70;52.60;;;;;;4993549;28;20387;-64
2021/09/08 02:13:03;;;;;;;4.50;3.20;;;14.70;52.40;;;;;;5009153;28;20030;-64
2021/09/08 02:15:29;;;;;;;3.78;3.10;;;14.60;52.30;;;;;;5013130;28;20110;-64
2021/09/08 02:17:54;;;;;;;4.35;2.95;;;14.60;52.60;;;;;;5012866;28;20053;-64
2021/09/08 02:20:20;;;;;;;5.45;3.88;;;14.60;52.40;;;;;;5012897;28;20042;-64
2021/09/08 02:22:46;;;;;;;4.43;3.25;;;14.50;52.50;;;;;;5013006;28;20382;-64
2021/09/08 02:25:13;;;;;;;5.43;3.97;;;14.60;52.40;;;;;;5005998;28;20383;-64
2021/09/08 02:27:39;;;;;;;5.05;3.10;;;14.60;52.50;;;;;;4991955;28;20026;-64
2021/09/08 02:30:05;;;;;;;5.97;3.10;;;14.50;52.70;;;;;;5007880;28;20030;-64
2021/09/08 02:32:31;;;;;;;4.28;3.13;;;14.50;52.50;;;;;;5012816;28;20550;-64
2021/09/08 02:34:57;;;;;;;4.75;3.30;;;14.50;52.60;;;;;;5012501;28;20053;-64
2021/09/08 02:37:23;;;;;;;4.53;3.30;;;14.50;52.80;;;;;;5012749;28;20076;-64
2021/09/08 02:39:49;;;;;;;3.53;3.20;;;14.50;52.70;;;;;;5012856;28;20030;-64
2021/09/08 02:42:15;;;;;;;4.55;3.20;;;14.50;53.30;;;;;;5012782;28;20037;-64
2021/09/08 02:44:41;;;;;;;3.88;3.00;;;14.40;52.60;;;;;;5012216;28;20026;-64
2021/09/08 02:47:08;;;;;;;6.38;3.63;;;14.40;52.70;;;;;;5012790;28;20022;-64
2021/09/08 02:49:34;;;;;;;5.30;3.42;;;14.40;52.70;;;;;;5012723;28;20034;-64
2021/09/08 02:51:59;;;;;;;4.20;3.25;;;14.40;52.80;;;;;;5011946;28;20022;-64
2021/09/08 02:54:25;;;;;;;4.07;2.92;;;14.40;52.80;;;;;;5012673;28;20593;-64
2021/09/08 02:56:51;;;;;;;5.20;3.50;;;14.40;52.90;;;;;;5011388;28;20429;-64
2021/09/08 02:59:16;;;;;;;4.72;3.25;;;14.40;53.00;;;;;;5015656;28;20017;-64
2021/09/08 03:01:42;;;;;;;4.55;3.10;;;14.40;53.10;;;;;;5015849;28;20038;-64
2021/09/08 03:04:08;;;;;;;4.32;3.20;;;14.30;52.90;;;;;;5015504;28;20018;-64
2021/09/08 03:06:33;;;;;;;5.97;3.53;;;14.30;53.00;;;;;;5016034;28;20470;-64
2021/09/08 03:08:59;;;;;;;5.38;3.55;;;14.30;53.00;;;;;;5011981;28;20037;-64
2021/09/08 03:11:26;;;;;;;5.80;3.80;;;14.30;53.20;;;;;;5004758;28;20049;-64
2021/09/08 03:13:52;;;;;;;4.85;3.55;;;14.30;53.10;;;;;;5015852;28;20113;-64
2021/09/08 03:16:18;;;;;;;5.80;4.00;;;14.30;53.10;;;;;;5015877;28;20125;-64
2021/09/08 03:18:43;;;;;;;4.65;3.30;;;14.30;53.10;;;;;;5014549;28;20108;-64
2021/09/08 03:21:09;;;;;;;5.22;3.83;;;14.30;53.20;;;;;;5015630;28;20129;-64
2021/09/08 03:23:35;;;;;;;5.85;3.50;;;14.30;53.30;;;;;;5015668;28;20030;-64
2021/09/08 03:26:00;;;;;;;5.28;3.15;;;14.30;53.30;;;;;;5016030;28;20505;-64
2021/09/08 03:28:26;;;;;;;5.50;4.03;;;14.30;53.30;;;;;;5015714;28;20053;-64
2021/09/08 03:30:52;;;;;;;6.13;3.85;;;14.30;53.20;;;;;;5015595;28;20030;-64
2021/09/08 03:33:17;;;;;;;7.25;4.07;;;14.30;53.50;;;;;;5015496;28;20030;-64
2021/09/08 03:35:44;;;;;;;6.60;4.03;;;14.30;53.30;;;;;;5014495;28;20068;-64
2021/09/08 03:38:10;;;;;;;5.88;4.20;;;14.30;53.20;;;;;;5015759;28;20489;-64
2021/09/08 03:40:36;;;;;;;6.78;3.90;;;14.30;53.40;;;;;;5015481;28;20117;-64
2021/09/08 03:43:02;;;;;;;5.50;3.55;;;14.30;53.30;;;;;;5015334;28;20108;-64
2021/09/08 03:45:28;;;;;;;5.82;3.72;;;14.30;53.40;;;;;;5015341;28;20026;-64
2021/09/08 03:47:54;;;;;;;6.00;3.70;;;14.30;53.40;;;;;;5015021;28;20071;-64
2021/09/08 03:50:19;;;;;;;4.88;3.28;;;14.30;53.30;;;;;;5015255;28;20030;-64
2021/09/08 03:52:45;;;;;;;5.55;3.67;;;14.30;53.30;;;;;;5015154;28;20486;-64
2021/09/08 03:55:11;;;;;;;6.43;3.85;;;14.30;53.30;;;;;;5014092;28;20034;-64
2021/09/08 03:57:37;;;;;;;7.07;3.97;;;14.40;53.60;;;;;;5015115;28;20104;-64
2021/09/08 04:00:06;;;;;;;7.72;3.97;;;14.40;53.40;;;;;;5015291;28;20033;-64
2021/09/08 04:02:31;;;;;;;7.40;3.88;;;14.40;53.60;;;;;;5015177;28;20506;-64
2021/09/08 04:04:58;;;;;;;4.22;3.25;;;14.40;53.40;;;;;;5015467;28;20125;-64
2021/09/08 04:07:27;;;;;;;5.70;3.72;;;14.50;53.50;;;;;;5015135;28;20022;-64
2021/09/08 04:09:53;;;;;;;6.97;3.60;;;14.50;53.50;;;;;;5014388;28;20033;-64
2021/09/08 04:12:19;;;;;;;5.35;3.72;;;14.60;53.40;;;;;;5013796;28;20037;-64
2021/09/08 04:14:45;;;;;;;3.90;2.85;;;14.60;53.60;;;;;;5014834;28;20467;-64
2021/09/08 04:17:11;;;;;;;6.07;4.43;;;14.70;53.70;;;;;;5014446;28;20018;-64
2021/09/08 04:19:36;;;;;;;4.93;3.35;;;14.70;53.50;;;;;;5014538;28;20036;-64
2021/09/08 04:22:02;;;;;;;4.53;3.22;;;14.70;53.50;;;;;;5014319;28;20046;-64
2021/09/08 04:24:28;;;;;;;4.38;3.22;;;14.80;53.60;;;;;;5014685;28;20034;-64
2021/09/08 04:26:54;;;;;;;6.63;3.33;;;14.80;53.40;;;;;;5014568;28;20029;-64
2021/09/08 04:29:19;;;;;;;5.00;3.60;;;14.90;53.40;;;;;;5013585;28;20377;-65
2021/09/08 04:31:45;;;;;;;5.28;3.30;;;14.90;53.50;;;;;;5014485;28;20117;-64
2021/09/08 04:34:11;;;;;;;4.78;3.38;;;15.00;53.50;;;;;;5014461;28;20075;-64
2021/09/08 04:36:36;;;;;;;4.82;3.42;;;15.00;53.30;;;;;;5014447;28;20029;-64
2021/09/08 04:39:03;;;;;;;5.25;3.17;;;15.10;53.40;;;;;;5014680;28;20032;-64
2021/09/08 04:41:28;;;;;;;5.07;2.97;;;15.10;53.30;;;;;;5014383;28;20034;-64
2021/09/08 04:43:54;;;;;;;5.25;3.53;;;15.10;53.30;;;;;;5014241;28;20423;-64
2021/09/08 04:46:20;;;;;;;4.25;3.17;;;15.20;53.40;;;;;;5013663;28;20025;-64
2021/09/08 04:48:46;;;;;;;4.13;2.85;;;15.30;53.30;;;;;;5014274;28;20037;-65
2021/09/08 04:51:11;;;;;;;4.97;3.03;;;15.30;53.30;;;;;;5014221;28;20080;-64
2021/09/08 04:53:37;;;;;;;4.50;3.10;;;15.40;53.30;;;;;;5014107;28;20057;-65
2021/09/08 04:56:03;;;;;;;4.40;3.03;;;15.50;53.20;;;;;;5014072;28;20119;-64
2021/09/08 04:58:29;;;;;;;5.45;3.35;;;15.50;53.30;;;;;;5014014;28;20026;-64
2021/09/08 05:00:54;;;;;;;3.28;2.88;;;15.50;53.30;;;;;;5011971;28;20026;-64
2021/09/08 05:03:20;;;;;;;4.72;3.10;;;15.60;53.00;;;;;;5011143;28;20052;-65
2021/09/08 05:05:45;;;;;;;4.10;3.05;;;15.70;52.90;;;;;;5008066;28;20454;-65
2021/09/08 05:08:11;;;;;;;5.15;3.20;;;15.70;52.80;;;;;;5010653;28;20033;-64
2021/09/08 05:10:37;;;;;;;4.13;2.67;;;15.80;52.80;;;;;;5008365;28;20108;-65
2021/09/08 05:13:02;;;;;;;4.63;3.25;;;15.80;52.80;;;;;;5013549;28;20018;-64
2021/09/08 05:15:28;;;;;;;4.95;3.00;;;15.90;52.60;;;;;;5013446;28;20022;-64
2021/09/08 05:17:54;;;;;;;3.75;3.22;;;16.00;52.90;;;;;;5015405;28;20368;-64
2021/09/08 05:20:19;;;;;;;3.83;2.90;;;16.10;52.50;;;;;;5009949;28;20508;-65
2021/09/08 05:22:45;;;;;;;4.43;2.75;;;16.20;52.40;;;;;;5012063;28;20022;-64
2021/09/08 05:25:11;;;;;;;4.78;2.63;;;16.30;52.30;;;;;;5001774;28;20018;-65
2021/09/08 05:27:37;;;;;;;3.03;2.60;;;16.30;52.10;;;;;;5006244;28;20036;-65
2021/09/08 05:30:04;;;;;;;4.80;2.83;;;16.40;52.20;;;;;;5002721;28;20014;-65
2021/09/08 05:32:29;;;;;;;3.85;3.05;;;16.40;52.00;;;;;;5007692;28;20026;-65
2021/09/08 05:34:56;;;;;;;2.90;2.53;;;16.50;52.00;;;;;;5007447;28;20022;-65
2021/09/08 05:37:23;;;;;;;4.35;3.05;;;16.60;52.00;;;;;;5008534;28;20080;-65
2021/09/08 05:39:48;;;;;;;3.15;2.60;;;16.70;52.00;;;;;;5007437;28;20062;-65
2021/09/08 05:42:14;;;;;;;5.05;2.65;;;17.00;51.80;;;;;;5003883;28;20413;-64
2021/09/08 05:44:40;;;;;;;4.05;3.00;;;17.10;51.60;;;;;;5008646;28;20061;-65
2021/09/08 05:47:05;;;;;;;4.05;2.90;;;17.20;51.70;;;;;;5008886;28;20034;-61
2021/09/08 05:49:31;;;;;;;3.53;2.70;;;17.20;51.20;;;;;;5000609;28;20026;-61
2021/09/08 05:51:57;;;;;;;4.63;3.17;;;17.30;51.20;;;;;;5000319;28;20044;-61
2021/09/08 05:54:22;;;;;;;4.82;2.83;;;17.40;51.30;;;;;;4991368;28;20524;-62
2021/09/08 05:56:48;;;;;;;4.65;3.10;;;17.50;51.40;;;;;;4995833;28;20544;-61
2021/09/08 05:59:14;;;;;;;4.97;2.90;;;17.60;51.10;;;;;;5000529;28;20073;-61
2021/09/08 06:01:40;;;;;;;5.43;3.10;;;17.70;50.90;;;;;;4999448;28;20048;-60
2021/09/08 06:04:05;;;;;;;5.63;3.08;;;17.70;50.80;;;;;;5001530;28;20033;-62
2021/09/08 06:06:31;;;;;;;4.50;2.80;;;17.70;50.80;;;;;;5000220;28;20042;-62
2021/09/08 06:08:57;;;;;;;3.78;2.60;;;17.80;50.90;;;;;;4996564;28;20026;-59
2021/09/08 06:11:22;;;;;;;4.80;3.20;;;17.80;50.70;;;;;;4996739;28;20042;-60
2021/09/08 06:13:48;;;;;;;3.53;2.80;;;17.90;51.00;;;;;;4996052;28;20094;-60
2021/09/08 06:16:14;;;;;;;3.13;2.45;;;17.90;51.00;;;;;;5002518;28;20045;-64
2021/09/08 06:18:40;;;;;;;3.72;2.63;;;18.00;50.80;;;;;;5001276;28;20034;-64
2021/09/08 06:21:05;;;;;;;3.22;2.53;;;18.00;50.70;;;;;;5005085;28;20142;-62
2021/09/08 06:23:31;;;;;;;3.15;2.60;;;18.10;50.60;;;;;;4996535;28;20539;-63
2021/09/08 06:25:57;;;;;;;3.75;2.47;;;18.20;50.60;;;;;;4997791;28;20083;-63
2021/09/08 06:28:24;;;;;;;3.30;2.40;;;18.20;50.80;;;;;;4996042;28;20084;-63
2021/09/08 06:30:50;;;;;;;3.05;2.75;;;18.30;50.40;;;;;;4998571;28;20771;-64
2021/09/08 06:33:16;;;;;;;2.45;2.22;;;18.30;50.30;;;;;;5005029;28;20049;-65
2021/09/08 06:35:41;;;;;;;3.05;2.38;;;18.40;50.20;;;;;;4998871;28;20037;-62
2021/09/08 06:38:07;;;;;;;2.95;2.58;;;18.50;50.10;;;;;;4985294;28;20041;-63
2021/09/08 06:40:33;;;;;;;2.58;2.33;;;18.50;50.00;;;;;;5002004;28;20602;-64
2021/09/08 06:42:59;;;;;;;2.88;2.60;;;18.60;50.00;;;;;;5000339;28;20094;-63
2021/09/08 06:45:25;;;;;;;3.13;2.63;;;18.60;50.10;;;;;;4995962;28;20026;-63
2021/09/08 06:47:50;;;;;;;2.90;2.33;;;18.70;49.70;;;;;;5004660;28;20482;-63
2021/09/08 06:50:16;;;;;;;9.18;3.00;;;18.80;49.60;;;;;;5002346;28;20457;-63
2021/09/08 06:52:42;;;;;;;3.40;2.50;;;18.80;49.50;;;;;;5001082;28;20225;-63
2021/09/08 06:55:08;;;;;;;4.18;2.70;;;18.90;49.50;;;;;;4997274;28;20026;-63
2021/09/08 06:57:33;;;;;;;3.05;2.30;;;19.00;49.40;;;;;;4987969;28;20411;-64
2021/09/08 06:59:59;;;;;;;3.45;2.60;;;19.00;49.40;;;;;;4991503;28;20066;-63
2021/09/08 07:02:25;;;;;;;2.63;2.40;;;19.10;49.40;;;;;;4990204;28;20034;-64
2021/09/08 07:04:50;;;;;;;4.85;2.38;;;19.20;49.20;;;;;;4991998;28;20034;-65
2021/09/08 07:07:19;;;;;;;5.63;2.92;;;19.20;49.20;;;;;;4992222;28;20480;-64
2021/09/08 07:09:46;;;;;;;5.50;2.60;;;19.30;49.00;;;;;;4986864;28;20137;-62
2021/09/08 07:12:11;;;;;;;4.38;2.60;;;19.30;48.80;;;;;;4989895;28;20541;-63
2021/09/08 07:14:37;;;;;;;3.83;2.63;;;19.40;48.70;;;;;;4995795;28;20036;-63
2021/09/08 07:17:03;;;;;;;3.85;2.65;;;19.40;48.50;;;;;;4991919;28;20095;-64
2021/09/08 07:19:28;;;;;;;3.95;2.30;;;19.50;48.40;;;;;;4988465;28;20030;-62
2021/09/08 07:21:54;;;;;;;3.40;2.80;;;19.60;48.40;;;;;;4994116;28;20047;-64
2021/09/08 07:24:20;;;;;;;3.17;2.65;;;19.60;48.50;;;;;;4988109;28;20034;-65
2021/09/08 07:26:45;;;;;;;4.40;2.60;;;19.70;48.40;;;;;;4983311;28;20076;-63
2021/09/08 07:29:12;;;;;;;3.10;2.20;;;19.70;48.00;;;;;;4987433;28;20030;-62
2021/09/08 07:31:37;;;;;;;3.08;2.33;;;19.80;48.00;;;;;;4984913;28;20040;-62
2021/09/08 07:34:03;;;;;;;2.53;2.30;;;19.80;48.00;;;;;;4984074;28;20038;-63
2021/09/08 07:36:29;;;;;;;2.65;2.40;;;19.80;47.90;;;;;;4992801;28;20033;-63
2021/09/08 07:38:55;;;;;;;3.13;2.30;;;19.90;47.80;;;;;;4991032;28;20121;-64
2021/09/08 07:41:21;;;;;;;3.90;2.65;;;19.90;47.80;;;;;;4988969;28;21353;-63
2021/09/08 07:43:47;;;;;;;2.95;2.22;;;20.00;47.80;;;;;;4988183;28;20469;-65
2021/09/08 07:46:14;;;;;;;3.80;2.38;;;20.00;47.60;;;;;;4995094;28;20034;-64
2021/09/08 07:48:40;;;;;;;2.90;2.13;;;20.10;47.50;;;;;;4988550;28;20667;-64
2021/09/08 07:51:07;;;;;;;2.58;2.17;;;20.10;47.40;;;;;;4992046;28;20025;-64
2021/09/08 07:53:33;;;;;;;5.55;2.47;;;20.10;47.20;;;;;;4992315;28;20052;-65
2021/09/08 07:55:59;;;;;;;3.75;2.50;;;20.20;47.10;;;;;;4980946;28;20041;-64
2021/09/08 07:58:25;;;;;;;3.53;2.53;;;20.20;46.90;;;;;;4986404;28;20056;-65
2021/09/08 08:00:50;;;;;;;2.65;2.10;;;20.20;46.90;;;;;;4988831;28;20025;-64
2021/09/08 08:03:16;;;;;;;3.45;2.22;;;20.30;46.50;;;;;;4990372;28;20033;-64
2021/09/08 08:05:42;;;;;;;4.65;3.10;;;20.30;46.30;;;;;;4997962;28;20030;-63
2021/09/08 08:08:07;;;;;;;2.88;2.30;;;20.30;46.20;;;;;;4995233;28;20029;-64
2021/09/08 08:10:33;;;;;;;3.40;2.08;;;20.40;46.20;;;;;;4994118;28;20851;-63
2021/09/08 08:12:59;;;;;;;2.60;2.00;;;20.40;46.10;;;;;;4988788;28;20065;-63
2021/09/08 08:15:25;;;;;;;3.15;2.03;;;20.40;46.00;;;;;;4993109;28;21987;-64
2021/09/08 08:17:51;;;;;;;2.92;2.30;;;20.40;45.90;;;;;;4986952;28;20032;-63
2021/09/08 08:20:18;;;;;;;3.40;2.08;;;20.50;45.90;;;;;;4986971;28;20121;-63
2021/09/08 08:22:47;;;;;;;2.20;2.00;;;20.50;45.60;;;;;;4988409;28;20393;-64
2021/09/08 08:25:16;;;;;;;2.13;1.92;;;20.50;45.40;;;;;;4985541;28;20057;-63
2021/09/08 08:27:42;;;;;;;2.85;2.17;;;20.50;45.20;;;;;;4986530;28;20123;-63
2021/09/08 08:30:10;;;;;;;2.53;2.10;;;20.50;45.20;;;;;;4989878;28;20026;-63
2021/09/08 08:32:36;;;;;;;3.17;2.05;;;20.50;45.10;;;;;;4983922;28;20034;-63
2021/09/08 08:35:03;;;;;;;2.00;1.80;;;20.50;44.90;;;;;;4994420;28;20042;-64
2021/09/08 08:37:29;;;;;;;2.33;1.88;;;20.60;44.80;;;;;;4987104;28;20052;-63
2021/09/08 08:39:55;;;;;;;2.33;2.00;;;20.60;44.70;;;;;;4989833;28;20041;-63
2021/09/08 08:42:26;;;;;;;2.20;2.00;;;20.60;44.70;;;;;;4990362;28;20033;-64
2021/09/08 08:44:54;;;;;;;3.03;2.28;;;20.60;44.40;;;;;;4989960;28;20084;-64
2021/09/08 08:47:20;;;;;;;2.50;2.00;;;20.60;44.50;;;;;;4990870;28;20053;-64
2021/09/08 08:49:47;;;;;;;2.08;1.88;;;20.60;44.40;;;;;;4998304;28;20022;-64
2021/09/08 08:52:13;;;;;;;2.50;2.03;;;20.60;44.30;;;;;;4986604;28;20053;-63
2021/09/08 08:54:39;;;;;;;1.90;1.70;;;20.60;44.40;;;;;;4985091;28;20026;-64
2021/09/08 08:57:11;;;;;;;3.08;2.30;;;20.60;44.20;;;;;;4985746;28;20048;-64
2021/09/08 08:59:38;;;;;;;3.03;2.13;;;20.60;44.20;;;;;;4985680;28;20506;-63
2021/09/08 09:02:23;;;;;;;4.13;2.72;;;20.60;44.20;;;;;;4987722;28;20030;-63
2021/09/08 09:04:51;;;;;;;2.20;2.00;;;20.50;44.10;;;;;;4984056;28;20095;-64
2021/09/08 09:07:31;;;;;;;2.95;2.20;;;20.50;44.30;;;;;;4988720;28;20101;-63
2021/09/08 09:10:09;;;;;;;1.80;1.70;;;20.50;44.10;;;;;;4990681;28;20807;-64
2021/09/08 09:12:44;;;;;;;2.80;2.10;;;20.50;44.40;;;;;;4984859;28;20555;-63
2021/09/08 09:15:12;;;;;;;3.33;2.15;;;20.50;44.40;;;;;;4985485;28;20038;-63
2021/09/08 09:17:39;;;;;;;3.28;2.20;;;20.50;44.20;;;;;;4990178;28;20037;-63
2021/09/08 09:20:10;;;;;;;3.47;2.20;;;20.50;44.30;;;;;;4989731;28;20045;-63
2021/09/08 09:22:41;;;;;;;2.53;1.77;;;20.50;44.30;;;;;;4980906;28;20038;-63
2021/09/08 09:25:11;;;;;;;3.70;2.20;;;20.50;44.40;;;;;;4983365;28;20061;-64
2021/09/08 09:27:43;;;;;;;2.35;1.80;;;20.60;44.60;;;;;;4981062;28;20360;-64
2021/09/08 09:30:12;;;;;;;4.18;2.33;;;20.50;44.40;;;;;;4982440;28;20026;-63
2021/09/08 09:32:44;;;;;;;8.52;3.58;;;20.60;44.30;;;;;;4986583;28;20324;-63
2021/09/08 09:35:13;;;;;;;3.88;2.40;;;20.50;44.30;;;;;;4988644;28;20045;-63
2021/09/08 09:37:47;;;;;;;2.35;2.03;;;20.50;44.30;;;;;;4985102;28;20038;-64
2021/09/08 09:40:14;;;;;;;3.33;2.03;;;20.50;44.00;;;;;;4985294;28;20038;-64
2021/09/08 09:42:42;;;;;;;3.40;2.30;;;20.50;44.10;;;;;;4989065;28;20562;-63
2021/09/08 09:45:09;;;;;;;2.95;2.17;;;20.50;44.20;;;;;;4982606;28;20053;-64
2021/09/08 09:47:36;;;;;;;1.90;1.80;;;20.50;44.40;;;;;;4987462;28;20905;-63
2021/09/08 09:50:06;;;;;;;2.20;2.00;;;20.50;44.40;;;;;;4987985;28;20064;-64
2021/09/08 09:52:33;;;;;;;3.53;2.20;;;20.50;44.30;;;;;;4991890;28;20033;-63
2021/09/08 09:54:59;;;;;;;6.93;2.30;;;20.50;44.40;;;;;;4988905;28;20076;-63
2021/09/08 09:57:26;;;;;;;3.65;2.22;;;20.60;44.30;;;;;;4992062;28;20033;-64
2021/09/08 09:59:53;;;;;;;2.40;2.20;;;20.60;44.10;;;;;;4983988;28;20088;-64
2021/09/08 10:02:19;;;;;;;2.17;1.92;;;20.70;44.10;;;;;;4986482;28;20025;-64
2021/09/08 10:04:48;;;;;;;2.97;2.40;;;20.70;44.30;;;;;;4981819;28;20032;-63
2021/09/08 10:07:15;;;;;;;2.75;2.13;;;20.70;44.10;;;;;;4989379;28;20044;-63
2021/09/08 10:09:41;;;;;;;2.35;1.95;;;20.70;44.10;;;;;;4989549;28;20532;-64
2021/09/08 10:12:08;;;;;;;2.33;2.13;;;20.70;44.30;;;;;;4992868;28;20026;-64
2021/09/08 10:14:34;;;;;;;2.88;2.05;;;20.70;44.10;;;;;;4989719;28;20045;-63
2021/09/08 10:17:02;;;;;;;4.47;2.58;;;20.70;44.00;;;;;;4990995;28;20065;-63
2021/09/08 10:19:29;;;;;;;3.08;2.20;;;20.70;43.80;;;;;;4992361;28;20038;-64
2021/09/08 10:22:06;;;;;;;3.63;2.17;;;20.70;43.70;;;;;;4988516;28;20524;-63
2021/09/08 10:24:32;;;;;;;3.80;2.20;;;20.70;43.70;;;;;;4996564;28;20382;-63
2021/09/08 10:26:57;;;;;;;4.32;2.10;;;20.70;43.80;;;;;;4992087;28;20040;-65
2021/09/08 10:29:26;;;;;;;2.00;1.90;;;20.70;43.90;;;;;;4986147;28;20034;-64
2021/09/08 10:31:54;;;;;;;3.30;2.33;;;20.70;43.90;;;;;;4994738;28;20121;-64
2021/09/08 10:34:21;;;;;;;3.10;2.65;;;20.80;44.10;;;;;;4988841;28;20042;-64
2021/09/08 10:36:47;;;;;;;2.30;2.00;;;20.80;44.10;;;;;;5002513;28;20053;-65
2021/09/08 10:39:18;;;;;;;3.28;2.13;;;20.80;44.10;;;;;;4993961;28;20087;-65
2021/09/08 10:41:50;;;;;;;2.70;2.20;;;20.80;44.00;;;;;;5001278;28;20527;-64
2021/09/08 10:44:19;;;;;;;3.20;2.33;;;20.80;43.80;;;;;;5003071;28;20160;-65
2021/09/08 10:46:56;;;;;;;2.80;2.22;;;20.90;43.70;;;;;;4995366;28;20022;-62
2021/09/08 10:49:49;;;;;;;5.60;2.40;;;20.90;43.80;;;;;;4997728;28;20022;-61
2021/09/08 10:52:36;;;;;;;3.45;2.38;;;20.90;43.80;;;;;;4993671;28;20100;-62
2021/09/08 10:55:02;;;;;;;2.63;2.20;;;20.90;43.80;;;;;;4993379;28;20034;-62
2021/09/08 10:57:48;;;;;;;2.25;2.05;;;20.90;43.90;;;;;;4998582;28;20593;-62
2021/09/08 11:00:26;;;;;;;3.97;2.70;;;21.00;43.80;;;;;;4988558;28;20044;-65
2021/09/08 11:02:52;;;;;;;5.60;3.17;;;20.90;44.90;;;;;;4998869;28;20088;-64
2021/09/08 11:05:18;;;;;;;3.65;2.55;;;20.90;45.50;;;;;;4996019;28;20030;-65
2021/09/08 11:07:46;;;;;;;8.82;3.00;;;20.90;45.80;;;;;;4992411;28;20034;-65
2021/09/08 11:10:13;;;;;;;4.95;2.85;;;20.80;46.50;;;;;;4987748;28;20120;-65
2021/09/08 11:12:46;;;;;;;5.65;3.35;;;20.80;47.40;;;;;;4992964;28;20033;-65
2021/09/08 11:15:13;;;;;;;5.07;2.65;;;20.80;47.60;;;;;;4992309;28;20065;-65
2021/09/08 11:17:40;;;;;;;4.25;3.22;;;20.80;47.70;;;;;;4995209;28;20150;-64
2021/09/08 11:20:08;;;;;;;5.03;3.53;;;20.80;48.40;;;;;;4999394;28;20034;-65
2021/09/08 11:22:34;;;;;;;8.43;4.05;;;20.70;49.30;;;;;;4990916;28;20514;-64
2021/09/08 11:25:11;;;;;;;3.22;2.90;;;20.70;49.60;;;;;;4989173;28;20386;-64
2021/09/08 11:27:40;;;;;;;4.70;3.22;;;20.70;49.70;;;;;;4992895;28;20052;-65
2021/09/08 11:30:13;;;;;;;3.97;2.95;;;20.60;49.60;;;;;;4996035;28;20030;-64
2021/09/08 11:33:12;;;;;;;3.35;2.90;;;20.60;49.40;;;;;;4994426;28;20271;-64
2021/09/08 11:35:49;;;;;;;4.00;2.70;;;20.50;49.30;;;;;;4988817;28;20127;-65
2021/09/08 11:38:23;;;;;;;4.65;3.15;;;20.50;49.60;;;;;;4992435;28;20033;-64
2021/09/08 11:40:50;;;;;;;3.53;2.90;;;20.50;50.10;;;;;;4988733;28;20035;-65
2021/09/08 11:43:34;;;;;;;4.22;2.95;;;20.40;50.80;;;;;;4998578;28;20093;-64
2021/09/08 11:46:12;;;;;;;3.40;2.88;;;20.40;52.50;;;;;;4998720;28;20034;-64
2021/09/08 11:48:38;;;;;;;3.33;2.72;;;20.40;52.30;;;;;;5003123;28;20050;-65
2021/09/08 11:51:06;;;;;;;3.20;2.70;;;20.40;52.10;;;;;;5002951;28;20048;-66
2021/09/08 11:53:33;;;;;;;3.08;2.70;;;20.30;52.30;;;;;;4999013;28;20061;-64
2021/09/08 11:56:17;;;;;;;4.03;2.88;;;20.40;51.90;;;;;;4995640;28;20030;-64
2021/09/08 11:58:50;;;;;;;3.47;2.60;;;20.30;52.20;;;;;;5019191;28;20045;-64
2021/09/08 12:01:15;;;;;;;3.22;2.63;;;20.30;52.20;;;;;;5028329;28;20031;-65
2021/09/08 12:03:55;;;;;;;4.82;3.08;;;20.30;52.20;;;;;;4999976;28;20044;-64
2021/09/08 12:06:26;;;;;;;3.55;2.70;;;20.30;52.20;;;;;;5000886;28;20033;-64
2021/09/08 12:08:58;;;;;;;4.35;3.15;;;20.30;51.40;;;;;;4996670;28;20053;-64
2021/09/08 12:11:37;;;;;;;4.10;2.90;;;20.20;51.50;;;;;;4998833;28;20065;-64
2021/09/08 12:14:21;;;;;;;2.80;2.25;;;20.30;52.20;;;;;;4993579;28;20035;-66
2021/09/08 12:16:55;;;;;;;3.50;2.22;;;20.20;51.60;;;;;;4993544;28;20045;-65
2021/09/08 12:19:34;;;;;;;2.58;2.38;;;20.10;51.50;;;;;;4988626;28;20112;-66
2021/09/08 12:22:15;;;;;;;2.58;2.38;;;20.10;51.60;;;;;;4989542;28;20058;-65
2021/09/08 12:24:41;;;;;;;;;;;20.10;51.50;;;;;;5018668;28;20034;-65
2021/09/08 12:27:34;;;;;;;2.50;1.80;;;20.10;51.70;;;;;;4987039;28;19924;-65
2021/09/08 12:30:02;;;;;;;3.60;2.70;;;20.10;51.20;;;;;;4987508;28;20065;-64
2021/09/08 12:32:48;;;;;;;3.78;2.40;;;20.10;51.40;;;;;;4998164;28;20038;-65
2021/09/08 12:35:40;;;;;;;2.58;2.38;;;20.10;51.80;;;;;;5000576;28;20140;-65
2021/09/08 12:38:41;;;;;;;2.80;2.20;;;20.10;51.80;;;;;;4992006;28;20083;-65
2021/09/08 12:41:18;;;;;;;2.67;2.17;;;20.10;51.80;;;;;;4990627;28;20029;-63
2021/09/08 12:44:09;;;;;;;3.53;2.42;;;20.10;52.60;;;;;;4994315;28;20287;-64
2021/09/08 12:46:48;;;;;;;2.45;2.25;;;20.00;51.80;;;;;;4989737;28;20125;-66
2021/09/08 12:49:18;;;;;;;4.47;2.40;;;20.10;52.00;;;;;;4993542;28;20034;-66
2021/09/08 12:51:45;;;;;;;3.15;2.60;;;20.00;52.10;;;;;;4993888;28;20243;-64